sensor_id;sensor_type;location;lat;lon;timestamp;P1;durP1;ratioP1;P2;durP2;ratioP2
22417;SDS011;11376;50.932;4.442;2023-03-01T00:01:12;12.10;;;5.43;;
22417;SDS011;11376;50.932;4.442;2023-03-01T00:03:40;10.60;;;5.70;;
22417;SDS011;11376;50.932;4.442;2023-03-01T00:06:06;10.00;;;5.37;;
22417;SDS011;11376;50.932;4.442;2023-03-01T00:08:32;10.40;;;5.60;;
22417;SDS011;11376;50.932;4.442;2023-03-01T00:11:06;11.63;;;5.90;;
22417;SDS011;11376;50.932;4.442;2023-03-01T00:13:37;11.43;;;5.77;;
22417;SDS011;11376;50.932;4.442;2023-03-01T00:16:07;10.47;;;5.50;;
22417;SDS011;11376;50.932;4.442;2023-03-01T00:18:34;12.40;;;5.93;;
22417;SDS011;11376;50.932;4.442;2023-03-01T00:21:00;13.03;;;5.63;;
22417;SDS011;11376;50.932;4.442;2023-03-01T00:23:26;11.40;;;5.37;;
22417;SDS011;11376;50.932;4.442;2023-03-01T00:25:52;11.10;;;5.73;;
22417;SDS011;11376;50.932;4.442;2023-03-01T00:28:18;9.77;;;5.37;;
22417;SDS011;11376;50.932;4.442;2023-03-01T00:30:44;10.73;;;5.77;;
22417;SDS011;11376;50.932;4.442;2023-03-01T00:33:11;10.87;;;5.27;;
22417;SDS011;11376;50.932;4.442;2023-03-01T00:35:36;12.47;;;5.40;;
22417;SDS011;11376;50.932;4.442;2023-03-01T00:38:02;13.37;;;5.47;;
22417;SDS011;11376;50.932;4.442;2023-03-01T00:40:29;10.83;;;5.57;;
22417;SDS011;11376;50.932;4.442;2023-03-01T00:42:57;12.03;;;5.77;;
22417;SDS011;11376;50.932;4.442;2023-03-01T00:45:22;17.53;;;5.67;;
22417;SDS011;11376;50.932;4.442;2023-03-01T00:47:49;11.00;;;5.37;;
22417;SDS011;11376;50.932;4.442;2023-03-01T00:50:15;11.80;;;5.93;;
22417;SDS011;11376;50.932;4.442;2023-03-01T00:52:42;16.07;;;6.00;;
22417;SDS011;11376;50.932;4.442;2023-03-01T00:55:07;11.10;;;5.23;;
22417;SDS011;11376;50.932;4.442;2023-03-01T00:57:33;14.70;;;5.60;;
22417;SDS011;11376;50.932;4.442;2023-03-01T00:59:59;9.70;;;5.53;;
22417;SDS011;11376;50.932;4.442;2023-03-01T01:02:24;10.37;;;5.73;;
22417;SDS011;11376;50.932;4.442;2023-03-01T01:04:50;10.70;;;5.20;;
22417;SDS011;11376;50.932;4.442;2023-03-01T01:07:16;10.97;;;5.43;;
22417;SDS011;11376;50.932;4.442;2023-03-01T01:09:42;11.73;;;5.87;;
22417;SDS011;11376;50.932;4.442;2023-03-01T01:12:08;11.37;;;5.87;;
22417;SDS011;11376;50.932;4.442;2023-03-01T01:14:34;11.07;;;5.90;;
22417;SDS011;11376;50.932;4.442;2023-03-01T01:16:59;10.37;;;5.23;;
22417;SDS011;11376;50.932;4.442;2023-03-01T01:19:25;10.73;;;4.93;;
22417;SDS011;11376;50.932;4.442;2023-03-01T01:21:51;8.73;;;4.93;;
22417;SDS011;11376;50.932;4.442;2023-03-01T01:24:17;16.57;;;5.63;;
22417;SDS011;11376;50.932;4.442;2023-03-01T01:26:43;9.63;;;5.20;;
22417;SDS011;11376;50.932;4.442;2023-03-01T01:29:09;10.40;;;5.23;;
22417;SDS011;11376;50.932;4.442;2023-03-01T01:31:36;11.30;;;5.30;;
22417;SDS011;11376;50.932;4.442;2023-03-01T01:34:03;9.50;;;5.00;;
22417;SDS011;11376;50.932;4.442;2023-03-01T01:36:30;11.93;;;5.00;;
22417;SDS011;11376;50.932;4.442;2023-03-01T01:38:57;9.30;;;4.73;;
22417;SDS011;11376;50.932;4.442;2023-03-01T01:41:23;10.00;;;5.30;;
22417;SDS011;11376;50.932;4.442;2023-03-01T01:44:09;10.80;;;5.20;;
22417;SDS011;11376;50.932;4.442;2023-03-01T01:46:40;10.67;;;5.17;;
22417;SDS011;11376;50.932;4.442;2023-03-01T01:49:37;10.33;;;4.90;;
22417;SDS011;11376;50.932;4.442;2023-03-01T01:52:14;11.23;;;5.10;;
22417;SDS011;11376;50.932;4.442;2023-03-01T01:54:57;11.40;;;5.50;;
22417;SDS011;11376;50.932;4.442;2023-03-01T01:57:53;11.73;;;5.33;;
22417;SDS011;11376;50.932;4.442;2023-03-01T02:00:24;9.73;;;5.43;;
22417;SDS011;11376;50.932;4.442;2023-03-01T02:02:56;11.03;;;5.37;;
22417;SDS011;11376;50.932;4.442;2023-03-01T02:08:10;12.53;;;4.87;;
22417;SDS011;11376;50.932;4.442;2023-03-01T02:10:37;10.30;;;5.40;;
22417;SDS011;11376;50.932;4.442;2023-03-01T02:13:04;10.03;;;5.67;;
22417;SDS011;11376;50.932;4.442;2023-03-01T02:15:33;12.67;;;5.80;;
22417;SDS011;11376;50.932;4.442;2023-03-01T02:18:01;14.13;;;5.87;;
22417;SDS011;11376;50.932;4.442;2023-03-01T02:23:31;10.90;;;5.20;;
22417;SDS011;11376;50.932;4.442;2023-03-01T02:26:01;11.73;;;6.13;;
22417;SDS011;11376;50.932;4.442;2023-03-01T02:28:40;11.23;;;5.57;;
22417;SDS011;11376;50.932;4.442;2023-03-01T02:31:09;10.50;;;5.60;;
22417;SDS011;11376;50.932;4.442;2023-03-01T02:33:54;10.90;;;5.80;;
22417;SDS011;11376;50.932;4.442;2023-03-01T02:36:28;12.93;;;5.83;;
22417;SDS011;11376;50.932;4.442;2023-03-01T02:38:59;15.07;;;5.80;;
22417;SDS011;11376;50.932;4.442;2023-03-01T02:41:28;12.97;;;5.57;;
22417;SDS011;11376;50.932;4.442;2023-03-01T02:43:57;12.50;;;6.23;;
22417;SDS011;11376;50.932;4.442;2023-03-01T02:46:24;10.60;;;5.80;;
22417;SDS011;11376;50.932;4.442;2023-03-01T02:48:54;10.83;;;5.90;;
22417;SDS011;11376;50.932;4.442;2023-03-01T02:54:17;12.37;;;5.90;;
22417;SDS011;11376;50.932;4.442;2023-03-01T02:56:50;12.63;;;6.40;;
22417;SDS011;11376;50.932;4.442;2023-03-01T02:59:18;12.23;;;6.00;;
22417;SDS011;11376;50.932;4.442;2023-03-01T03:01:45;12.70;;;5.80;;
22417;SDS011;11376;50.932;4.442;2023-03-01T03:04:13;11.77;;;6.17;;
22417;SDS011;11376;50.932;4.442;2023-03-01T03:06:44;10.10;;;5.73;;
22417;SDS011;11376;50.932;4.442;2023-03-01T03:09:11;12.73;;;6.17;;
22417;SDS011;11376;50.932;4.442;2023-03-01T03:11:37;13.77;;;5.90;;
22417;SDS011;11376;50.932;4.442;2023-03-01T03:14:05;12.43;;;5.67;;
22417;SDS011;11376;50.932;4.442;2023-03-01T03:16:38;11.43;;;5.40;;
22417;SDS011;11376;50.932;4.442;2023-03-01T03:19:07;12.40;;;5.93;;
22417;SDS011;11376;50.932;4.442;2023-03-01T03:21:32;12.73;;;6.03;;
22417;SDS011;11376;50.932;4.442;2023-03-01T03:23:58;11.07;;;5.73;;
22417;SDS011;11376;50.932;4.442;2023-03-01T03:26:24;12.87;;;5.87;;
22417;SDS011;11376;50.932;4.442;2023-03-01T03:28:49;11.87;;;6.13;;
22417;SDS011;11376;50.932;4.442;2023-03-01T03:31:15;12.67;;;5.83;;
22417;SDS011;11376;50.932;4.442;2023-03-01T03:33:41;12.57;;;5.73;;
22417;SDS011;11376;50.932;4.442;2023-03-01T03:36:07;10.90;;;6.23;;
22417;SDS011;11376;50.932;4.442;2023-03-01T03:38:37;11.33;;;5.50;;
22417;SDS011;11376;50.932;4.442;2023-03-01T03:41:05;10.43;;;5.33;;
22417;SDS011;11376;50.932;4.442;2023-03-01T03:43:32;14.07;;;6.20;;
22417;SDS011;11376;50.932;4.442;2023-03-01T03:46:00;14.57;;;6.10;;
22417;SDS011;11376;50.932;4.442;2023-03-01T03:48:32;11.90;;;6.37;;
22417;SDS011;11376;50.932;4.442;2023-03-01T03:50:59;14.17;;;6.53;;
22417;SDS011;11376;50.932;4.442;2023-03-01T03:53:25;12.77;;;5.93;;
22417;SDS011;11376;50.932;4.442;2023-03-01T03:55:52;11.47;;;6.30;;
22417;SDS011;11376;50.932;4.442;2023-03-01T03:58:19;14.67;;;6.63;;
22417;SDS011;11376;50.932;4.442;2023-03-01T04:00:47;15.40;;;6.17;;
22417;SDS011;11376;50.932;4.442;2023-03-01T04:03:15;13.70;;;6.33;;
22417;SDS011;11376;50.932;4.442;2023-03-01T04:05:43;11.13;;;6.27;;
22417;SDS011;11376;50.932;4.442;2023-03-01T04:08:09;14.00;;;6.47;;
22417;SDS011;11376;50.932;4.442;2023-03-01T04:10:37;17.03;;;6.10;;
22417;SDS011;11376;50.932;4.442;2023-03-01T04:13:12;10.10;;;6.33;;
22417;SDS011;11376;50.932;4.442;2023-03-01T04:15:41;11.37;;;6.03;;
22417;SDS011;11376;50.932;4.442;2023-03-01T04:18:13;15.47;;;6.17;;
22417;SDS011;11376;50.932;4.442;2023-03-01T04:20:40;13.00;;;6.33;;
22417;SDS011;11376;50.932;4.442;2023-03-01T04:23:07;11.27;;;6.10;;
22417;SDS011;11376;50.932;4.442;2023-03-01T04:28:25;15.43;;;6.57;;
22417;SDS011;11376;50.932;4.442;2023-03-01T04:30:53;14.80;;;6.57;;
22417;SDS011;11376;50.932;4.442;2023-03-01T04:33:19;12.40;;;6.47;;
22417;SDS011;11376;50.932;4.442;2023-03-01T04:35:45;14.27;;;6.40;;
22417;SDS011;11376;50.932;4.442;2023-03-01T04:38:11;14.30;;;6.53;;
22417;SDS011;11376;50.932;4.442;2023-03-01T04:40:36;14.10;;;6.47;;
22417;SDS011;11376;50.932;4.442;2023-03-01T04:43:03;13.23;;;6.73;;
22417;SDS011;11376;50.932;4.442;2023-03-01T04:45:29;12.77;;;6.40;;
22417;SDS011;11376;50.932;4.442;2023-03-01T04:47:56;14.03;;;6.67;;
22417;SDS011;11376;50.932;4.442;2023-03-01T04:50:23;15.63;;;6.73;;
22417;SDS011;11376;50.932;4.442;2023-03-01T04:52:50;14.73;;;6.60;;
22417;SDS011;11376;50.932;4.442;2023-03-01T04:55:16;12.90;;;6.37;;
22417;SDS011;11376;50.932;4.442;2023-03-01T04:57:42;12.73;;;6.47;;
22417;SDS011;11376;50.932;4.442;2023-03-01T05:00:09;14.33;;;6.80;;
22417;SDS011;11376;50.932;4.442;2023-03-01T05:02:49;12.87;;;6.50;;
22417;SDS011;11376;50.932;4.442;2023-03-01T05:05:18;13.67;;;6.70;;
22417;SDS011;11376;50.932;4.442;2023-03-01T05:07:57;13.03;;;6.37;;
22417;SDS011;11376;50.932;4.442;2023-03-01T05:10:26;11.97;;;6.43;;
22417;SDS011;11376;50.932;4.442;2023-03-01T05:12:56;16.57;;;6.73;;
22417;SDS011;11376;50.932;4.442;2023-03-01T05:15:23;15.53;;;7.10;;
22417;SDS011;11376;50.932;4.442;2023-03-01T05:17:50;12.20;;;6.43;;
22417;SDS011;11376;50.932;4.442;2023-03-01T05:20:17;14.43;;;6.27;;
22417;SDS011;11376;50.932;4.442;2023-03-01T05:22:43;13.83;;;6.73;;
22417;SDS011;11376;50.932;4.442;2023-03-01T05:25:08;14.10;;;6.63;;
22417;SDS011;11376;50.932;4.442;2023-03-01T05:27:34;12.70;;;6.53;;
22417;SDS011;11376;50.932;4.442;2023-03-01T05:30:00;14.20;;;6.77;;
22417;SDS011;11376;50.932;4.442;2023-03-01T05:32:38;16.43;;;7.17;;
22417;SDS011;11376;50.932;4.442;2023-03-01T05:35:08;16.77;;;6.47;;
22417;SDS011;11376;50.932;4.442;2023-03-01T05:37:38;18.57;;;6.93;;
22417;SDS011;11376;50.932;4.442;2023-03-01T05:40:08;12.67;;;6.87;;
22417;SDS011;11376;50.932;4.442;2023-03-01T05:42:41;15.93;;;6.83;;
22417;SDS011;11376;50.932;4.442;2023-03-01T05:45:10;19.27;;;6.83;;
22417;SDS011;11376;50.932;4.442;2023-03-01T05:47:37;11.40;;;6.20;;
22417;SDS011;11376;50.932;4.442;2023-03-01T05:52:36;13.77;;;6.73;;
22417;SDS011;11376;50.932;4.442;2023-03-01T05:55:02;14.57;;;6.47;;
22417;SDS011;11376;50.932;4.442;2023-03-01T05:57:28;14.27;;;6.90;;
22417;SDS011;11376;50.932;4.442;2023-03-01T05:59:54;15.80;;;6.77;;
22417;SDS011;11376;50.932;4.442;2023-03-01T06:02:19;14.93;;;6.50;;
22417;SDS011;11376;50.932;4.442;2023-03-01T06:04:45;12.70;;;6.20;;
22417;SDS011;11376;50.932;4.442;2023-03-01T06:07:10;17.63;;;6.60;;
22417;SDS011;11376;50.932;4.442;2023-03-01T06:09:36;16.57;;;6.80;;
22417;SDS011;11376;50.932;4.442;2023-03-01T06:12:02;14.53;;;6.90;;
22417;SDS011;11376;50.932;4.442;2023-03-01T06:14:27;16.47;;;7.33;;
22417;SDS011;11376;50.932;4.442;2023-03-01T06:16:53;15.37;;;6.93;;
22417;SDS011;11376;50.932;4.442;2023-03-01T06:19:18;16.37;;;7.73;;
22417;SDS011;11376;50.932;4.442;2023-03-01T06:21:44;14.50;;;6.47;;
22417;SDS011;11376;50.932;4.442;2023-03-01T06:24:10;15.40;;;7.13;;
22417;SDS011;11376;50.932;4.442;2023-03-01T06:26:35;12.33;;;6.67;;
22417;SDS011;11376;50.932;4.442;2023-03-01T06:29:01;15.07;;;7.00;;
22417;SDS011;11376;50.932;4.442;2023-03-01T06:31:26;16.73;;;7.17;;
22417;SDS011;11376;50.932;4.442;2023-03-01T06:33:52;15.27;;;6.80;;
22417;SDS011;11376;50.932;4.442;2023-03-01T06:36:17;16.97;;;7.13;;
22417;SDS011;11376;50.932;4.442;2023-03-01T06:38:45;15.13;;;7.47;;
22417;SDS011;11376;50.932;4.442;2023-03-01T06:41:11;14.37;;;7.07;;
22417;SDS011;11376;50.932;4.442;2023-03-01T06:43:37;12.60;;;6.63;;
22417;SDS011;11376;50.932;4.442;2023-03-01T06:46:05;16.37;;;7.63;;
22417;SDS011;11376;50.932;4.442;2023-03-01T06:48:32;14.67;;;6.77;;
22417;SDS011;11376;50.932;4.442;2023-03-01T06:50:59;14.90;;;6.97;;
22417;SDS011;11376;50.932;4.442;2023-03-01T06:53:28;14.03;;;6.83;;
22417;SDS011;11376;50.932;4.442;2023-03-01T06:55:55;15.63;;;7.63;;
22417;SDS011;11376;50.932;4.442;2023-03-01T06:58:21;13.63;;;6.80;;
22417;SDS011;11376;50.932;4.442;2023-03-01T07:00:46;16.83;;;7.40;;
22417;SDS011;11376;50.932;4.442;2023-03-01T07:03:12;17.43;;;6.90;;
22417;SDS011;11376;50.932;4.442;2023-03-01T07:05:38;17.23;;;6.83;;
22417;SDS011;11376;50.932;4.442;2023-03-01T07:08:03;12.57;;;6.80;;
22417;SDS011;11376;50.932;4.442;2023-03-01T07:10:29;12.53;;;6.80;;
22417;SDS011;11376;50.932;4.442;2023-03-01T07:12:55;18.03;;;7.57;;
22417;SDS011;11376;50.932;4.442;2023-03-01T07:15:22;17.37;;;7.80;;
22417;SDS011;11376;50.932;4.442;2023-03-01T07:17:48;16.33;;;7.40;;
22417;SDS011;11376;50.932;4.442;2023-03-01T07:20:15;14.50;;;6.73;;
22417;SDS011;11376;50.932;4.442;2023-03-01T07:22:42;15.07;;;6.50;;
22417;SDS011;11376;50.932;4.442;2023-03-01T07:25:09;17.23;;;6.63;;
22417;SDS011;11376;50.932;4.442;2023-03-01T07:27:34;14.70;;;6.57;;
22417;SDS011;11376;50.932;4.442;2023-03-01T07:30:00;17.70;;;6.13;;
22417;SDS011;11376;50.932;4.442;2023-03-01T07:32:26;13.83;;;7.13;;
22417;SDS011;11376;50.932;4.442;2023-03-01T07:34:52;15.90;;;6.87;;
22417;SDS011;11376;50.932;4.442;2023-03-01T07:37:18;11.83;;;6.30;;
22417;SDS011;11376;50.932;4.442;2023-03-01T07:39:47;19.47;;;6.70;;
22417;SDS011;11376;50.932;4.442;2023-03-01T07:42:12;12.90;;;6.63;;
22417;SDS011;11376;50.932;4.442;2023-03-01T07:44:38;13.57;;;6.07;;
22417;SDS011;11376;50.932;4.442;2023-03-01T07:47:04;14.70;;;6.03;;
22417;SDS011;11376;50.932;4.442;2023-03-01T07:49:30;13.40;;;6.30;;
22417;SDS011;11376;50.932;4.442;2023-03-01T07:51:57;12.63;;;6.00;;
22417;SDS011;11376;50.932;4.442;2023-03-01T07:57:17;12.53;;;6.17;;
22417;SDS011;11376;50.932;4.442;2023-03-01T07:59:43;11.80;;;6.10;;
22417;SDS011;11376;50.932;4.442;2023-03-01T08:02:09;12.00;;;5.80;;
22417;SDS011;11376;50.932;4.442;2023-03-01T08:04:35;12.20;;;6.10;;
22417;SDS011;11376;50.932;4.442;2023-03-01T08:07:04;12.87;;;6.33;;
22417;SDS011;11376;50.932;4.442;2023-03-01T08:09:30;13.47;;;6.07;;
22417;SDS011;11376;50.932;4.442;2023-03-01T08:11:56;15.60;;;7.33;;
22417;SDS011;11376;50.932;4.442;2023-03-01T08:14:24;13.80;;;6.17;;
22417;SDS011;11376;50.932;4.442;2023-03-01T08:16:50;14.93;;;6.70;;
22417;SDS011;11376;50.932;4.442;2023-03-01T08:19:15;12.60;;;6.20;;
22417;SDS011;11376;50.932;4.442;2023-03-01T08:21:41;14.07;;;6.20;;
22417;SDS011;11376;50.932;4.442;2023-03-01T08:24:07;13.33;;;6.30;;
22417;SDS011;11376;50.932;4.442;2023-03-01T08:26:35;11.43;;;5.80;;
22417;SDS011;11376;50.932;4.442;2023-03-01T08:29:00;13.03;;;6.30;;
22417;SDS011;11376;50.932;4.442;2023-03-01T08:31:27;11.37;;;6.27;;
22417;SDS011;11376;50.932;4.442;2023-03-01T08:33:59;12.13;;;6.30;;
22417;SDS011;11376;50.932;4.442;2023-03-01T08:36:28;13.80;;;6.60;;
22417;SDS011;11376;50.932;4.442;2023-03-01T08:38:59;13.50;;;6.80;;
22417;SDS011;11376;50.932;4.442;2023-03-01T08:41:25;14.83;;;6.60;;
22417;SDS011;11376;50.932;4.442;2023-03-01T08:43:51;11.53;;;6.53;;
22417;SDS011;11376;50.932;4.442;2023-03-01T08:46:17;13.23;;;6.30;;
22417;SDS011;11376;50.932;4.442;2023-03-01T08:48:43;11.43;;;5.43;;
22417;SDS011;11376;50.932;4.442;2023-03-01T08:53:36;12.67;;;6.40;;
22417;SDS011;11376;50.932;4.442;2023-03-01T08:56:02;15.53;;;6.73;;
22417;SDS011;11376;50.932;4.442;2023-03-01T08:58:28;10.67;;;5.77;;
22417;SDS011;11376;50.932;4.442;2023-03-01T09:00:54;11.87;;;6.17;;
22417;SDS011;11376;50.932;4.442;2023-03-01T09:03:21;14.70;;;5.80;;
22417;SDS011;11376;50.932;4.442;2023-03-01T09:05:47;14.57;;;6.60;;
22417;SDS011;11376;50.932;4.442;2023-03-01T09:08:15;13.40;;;6.60;;
22417;SDS011;11376;50.932;4.442;2023-03-01T09:10:41;13.33;;;6.33;;
22417;SDS011;11376;50.932;4.442;2023-03-01T09:13:07;11.30;;;5.57;;
22417;SDS011;11376;50.932;4.442;2023-03-01T09:15:32;12.30;;;6.23;;
22417;SDS011;11376;50.932;4.442;2023-03-01T09:17:58;12.90;;;6.60;;
22417;SDS011;11376;50.932;4.442;2023-03-01T09:20:24;16.53;;;6.20;;
22417;SDS011;11376;50.932;4.442;2023-03-01T09:22:50;10.77;;;5.87;;
22417;SDS011;11376;50.932;4.442;2023-03-01T09:25:15;11.57;;;5.83;;
22417;SDS011;11376;50.932;4.442;2023-03-01T09:27:41;11.37;;;5.53;;
22417;SDS011;11376;50.932;4.442;2023-03-01T09:30:07;11.97;;;6.27;;
22417;SDS011;11376;50.932;4.442;2023-03-01T09:32:33;11.37;;;6.40;;
22417;SDS011;11376;50.932;4.442;2023-03-01T09:34:59;11.03;;;6.53;;
22417;SDS011;11376;50.932;4.442;2023-03-01T09:37:32;14.57;;;6.07;;
22417;SDS011;11376;50.932;4.442;2023-03-01T09:39:58;9.57;;;5.57;;
22417;SDS011;11376;50.932;4.442;2023-03-01T09:42:24;13.47;;;6.67;;
22417;SDS011;11376;50.932;4.442;2023-03-01T09:44:51;14.17;;;6.13;;
22417;SDS011;11376;50.932;4.442;2023-03-01T09:47:24;12.87;;;6.53;;
22417;SDS011;11376;50.932;4.442;2023-03-01T09:52:39;11.57;;;5.73;;
22417;SDS011;11376;50.932;4.442;2023-03-01T10:01:51;10.03;;;5.83;;
22417;SDS011;11376;50.932;4.442;2023-03-01T10:10:02;13.47;;;6.07;;
22417;SDS011;11376;50.932;4.442;2023-03-01T10:12:33;10.40;;;5.77;;
22417;SDS011;11376;50.932;4.442;2023-03-01T10:23:02;11.73;;;5.93;;
22417;SDS011;11376;50.932;4.442;2023-03-01T10:25:36;13.17;;;5.53;;
22417;SDS011;11376;50.932;4.442;2023-03-01T10:28:20;10.80;;;6.00;;
22417;SDS011;11376;50.932;4.442;2023-03-01T10:31:11;10.87;;;6.43;;
22417;SDS011;11376;50.932;4.442;2023-03-01T10:33:39;12.27;;;6.30;;
22417;SDS011;11376;50.932;4.442;2023-03-01T10:36:06;9.50;;;5.60;;
22417;SDS011;11376;50.932;4.442;2023-03-01T10:38:46;11.20;;;6.00;;
22417;SDS011;11376;50.932;4.442;2023-03-01T10:41:17;10.53;;;5.60;;
22417;SDS011;11376;50.932;4.442;2023-03-01T10:43:44;12.37;;;6.07;;
22417;SDS011;11376;50.932;4.442;2023-03-01T10:46:21;9.17;;;5.70;;
22417;SDS011;11376;50.932;4.442;2023-03-01T10:48:52;10.73;;;5.93;;
22417;SDS011;11376;50.932;4.442;2023-03-01T10:51:41;11.70;;;5.80;;
22417;SDS011;11376;50.932;4.442;2023-03-01T10:54:16;8.83;;;5.63;;
22417;SDS011;11376;50.932;4.442;2023-03-01T10:56:49;10.77;;;5.93;;
22417;SDS011;11376;50.932;4.442;2023-03-01T10:59:20;10.30;;;6.03;;
22417;SDS011;11376;50.932;4.442;2023-03-01T11:02:01;11.40;;;6.00;;
22417;SDS011;11376;50.932;4.442;2023-03-01T11:04:59;8.57;;;5.95;;
22417;SDS011;11376;50.932;4.442;2023-03-01T11:07:25;10.07;;;5.55;;
22417;SDS011;11376;50.932;4.442;2023-03-01T11:09:51;10.38;;;5.57;;
22417;SDS011;11376;50.932;4.442;2023-03-01T11:12:17;10.05;;;6.10;;
22417;SDS011;11376;50.932;4.442;2023-03-01T11:14:50;10.20;;;5.80;;
22417;SDS011;11376;50.932;4.442;2023-03-01T11:23:21;10.82;;;6.00;;
22417;SDS011;11376;50.932;4.442;2023-03-01T11:25:33;10.45;;;5.70;;
22417;SDS011;11376;50.932;4.442;2023-03-01T11:28:03;10.68;;;6.20;;
22417;SDS011;11376;50.932;4.442;2023-03-01T11:30:40;9.15;;;5.85;;
22417;SDS011;11376;50.932;4.442;2023-03-01T11:33:17;10.90;;;6.15;;
22417;SDS011;11376;50.932;4.442;2023-03-01T11:38:50;10.05;;;6.35;;
22417;SDS011;11376;50.932;4.442;2023-03-01T11:41:17;9.45;;;5.90;;
22417;SDS011;11376;50.932;4.442;2023-03-01T11:51:51;10.82;;;5.55;;
22417;SDS011;11376;50.932;4.442;2023-03-01T11:54:48;9.88;;;5.70;;
22417;SDS011;11376;50.932;4.442;2023-03-01T12:05:11;10.13;;;6.00;;
22417;SDS011;11376;50.932;4.442;2023-03-01T12:07:58;9.18;;;5.35;;
22417;SDS011;11376;50.932;4.442;2023-03-01T12:10:41;10.05;;;5.50;;
22417;SDS011;11376;50.932;4.442;2023-03-01T12:24:43;9.52;;;5.63;;
22417;SDS011;11376;50.932;4.442;2023-03-01T12:29:50;10.48;;;5.85;;
22417;SDS011;11376;50.932;4.442;2023-03-01T12:40:56;9.75;;;5.75;;
22417;SDS011;11376;50.932;4.442;2023-03-01T12:43:55;7.78;;;5.40;;
22417;SDS011;11376;50.932;4.442;2023-03-01T12:49:26;8.02;;;5.70;;
22417;SDS011;11376;50.932;4.442;2023-03-01T12:51:58;7.97;;;5.30;;
22417;SDS011;11376;50.932;4.442;2023-03-01T12:54:45;9.60;;;6.03;;
22417;SDS011;11376;50.932;4.442;2023-03-01T12:57:18;9.65;;;5.65;;
22417;SDS011;11376;50.932;4.442;2023-03-01T12:59:59;9.00;;;5.78;;
22417;SDS011;11376;50.932;4.442;2023-03-01T13:03:02;8.15;;;5.90;;
22417;SDS011;11376;50.932;4.442;2023-03-01T13:08:55;8.90;;;6.05;;
22417;SDS011;11376;50.932;4.442;2023-03-01T13:11:27;9.73;;;6.10;;
22417;SDS011;11376;50.932;4.442;2023-03-01T13:14:08;8.13;;;6.00;;
22417;SDS011;11376;50.932;4.442;2023-03-01T13:16:54;10.70;;;6.10;;
22417;SDS011;11376;50.932;4.442;2023-03-01T13:21:57;9.63;;;5.53;;
22417;SDS011;11376;50.932;4.442;2023-03-01T13:24:24;7.85;;;5.82;;
22417;SDS011;11376;50.932;4.442;2023-03-01T13:32:24;8.48;;;5.38;;
22417;SDS011;11376;50.932;4.442;2023-03-01T13:34:55;10.15;;;5.68;;
22417;SDS011;11376;50.932;4.442;2023-03-01T13:37:36;10.63;;;5.80;;
22417;SDS011;11376;50.932;4.442;2023-03-01T13:42:51;8.48;;;5.53;;
22417;SDS011;11376;50.932;4.442;2023-03-01T13:47:59;8.88;;;5.78;;
22417;SDS011;11376;50.932;4.442;2023-03-01T13:50:33;8.30;;;5.80;;
22417;SDS011;11376;50.932;4.442;2023-03-01T13:53:04;9.10;;;5.72;;
22417;SDS011;11376;50.932;4.442;2023-03-01T13:58:21;9.07;;;6.15;;
22417;SDS011;11376;50.932;4.442;2023-03-01T14:00:54;8.98;;;5.68;;
22417;SDS011;11376;50.932;4.442;2023-03-01T14:03:20;9.35;;;5.88;;
22417;SDS011;11376;50.932;4.442;2023-03-01T14:06:03;10.48;;;6.03;;
22417;SDS011;11376;50.932;4.442;2023-03-01T14:08:31;10.25;;;6.05;;
22417;SDS011;11376;50.932;4.442;2023-03-01T14:13:39;8.57;;;5.82;;
22417;SDS011;11376;50.932;4.442;2023-03-01T14:16:22;8.98;;;6.07;;
22417;SDS011;11376;50.932;4.442;2023-03-01T14:19:25;10.30;;;5.88;;
22417;SDS011;11376;50.932;4.442;2023-03-01T14:24:49;10.13;;;5.88;;
22417;SDS011;11376;50.932;4.442;2023-03-01T14:27:23;11.75;;;6.68;;
22417;SDS011;11376;50.932;4.442;2023-03-01T14:30:10;9.30;;;6.25;;
22417;SDS011;11376;50.932;4.442;2023-03-01T14:32:48;10.45;;;6.20;;
22417;SDS011;11376;50.932;4.442;2023-03-01T14:35:25;10.75;;;6.32;;
22417;SDS011;11376;50.932;4.442;2023-03-01T14:37:55;10.40;;;6.15;;
22417;SDS011;11376;50.932;4.442;2023-03-01T14:40:26;10.43;;;6.22;;
22417;SDS011;11376;50.932;4.442;2023-03-01T14:43:03;9.45;;;6.40;;
22417;SDS011;11376;50.932;4.442;2023-03-01T14:45:35;9.00;;;5.97;;
22417;SDS011;11376;50.932;4.442;2023-03-01T14:48:02;9.38;;;6.03;;
22417;SDS011;11376;50.932;4.442;2023-03-01T14:50:30;10.60;;;6.18;;
22417;SDS011;11376;50.932;4.442;2023-03-01T14:53:02;11.57;;;5.93;;
22417;SDS011;11376;50.932;4.442;2023-03-01T14:55:38;10.05;;;6.13;;
22417;SDS011;11376;50.932;4.442;2023-03-01T14:58:11;10.30;;;6.20;;
22417;SDS011;11376;50.932;4.442;2023-03-01T15:00:38;9.13;;;6.13;;
22417;SDS011;11376;50.932;4.442;2023-03-01T15:03:14;10.25;;;6.20;;
22417;SDS011;11376;50.932;4.442;2023-03-01T15:05:48;10.30;;;5.97;;
22417;SDS011;11376;50.932;4.442;2023-03-01T15:08:16;9.88;;;5.70;;
22417;SDS011;11376;50.932;4.442;2023-03-01T15:10:56;10.93;;;6.13;;
22417;SDS011;11376;50.932;4.442;2023-03-01T15:13:24;10.95;;;5.63;;
22417;SDS011;11376;50.932;4.442;2023-03-01T15:15:51;10.35;;;6.15;;
22417;SDS011;11376;50.932;4.442;2023-03-01T15:18:26;10.15;;;6.45;;
22417;SDS011;11376;50.932;4.442;2023-03-01T15:20:53;9.68;;;6.35;;
22417;SDS011;11376;50.932;4.442;2023-03-01T15:25:50;9.95;;;5.85;;
22417;SDS011;11376;50.932;4.442;2023-03-01T15:28:22;9.50;;;6.07;;
22417;SDS011;11376;50.932;4.442;2023-03-01T15:30:52;10.13;;;6.07;;
22417;SDS011;11376;50.932;4.442;2023-03-01T15:35:52;10.57;;;6.10;;
22417;SDS011;11376;50.932;4.442;2023-03-01T15:38:26;11.38;;;6.13;;
22417;SDS011;11376;50.932;4.442;2023-03-01T15:40:56;10.50;;;5.90;;
22417;SDS011;11376;50.932;4.442;2023-03-01T15:49:02;13.20;;;6.07;;
22417;SDS011;11376;50.932;4.442;2023-03-01T15:51:49;12.00;;;6.17;;
22417;SDS011;11376;50.932;4.442;2023-03-01T15:54:19;11.17;;;6.20;;
22417;SDS011;11376;50.932;4.442;2023-03-01T15:56:48;10.17;;;5.40;;
22417;SDS011;11376;50.932;4.442;2023-03-01T15:59:14;9.97;;;5.77;;
22417;SDS011;11376;50.932;4.442;2023-03-01T16:01:43;9.57;;;5.83;;
22417;SDS011;11376;50.932;4.442;2023-03-01T16:04:10;9.33;;;5.70;;
22417;SDS011;11376;50.932;4.442;2023-03-01T16:06:41;9.03;;;5.60;;
22417;SDS011;11376;50.932;4.442;2023-03-01T16:09:07;9.53;;;4.63;;
22417;SDS011;11376;50.932;4.442;2023-03-01T16:11:32;10.37;;;5.27;;
22417;SDS011;11376;50.932;4.442;2023-03-01T16:14:01;10.57;;;5.70;;
22417;SDS011;11376;50.932;4.442;2023-03-01T16:16:27;10.37;;;5.93;;
22417;SDS011;11376;50.932;4.442;2023-03-01T16:18:53;11.53;;;5.63;;
22417;SDS011;11376;50.932;4.442;2023-03-01T16:21:20;9.27;;;5.00;;
22417;SDS011;11376;50.932;4.442;2023-03-01T16:23:47;9.83;;;5.10;;
22417;SDS011;11376;50.932;4.442;2023-03-01T16:26:14;10.10;;;5.33;;
22417;SDS011;11376;50.932;4.442;2023-03-01T16:28:41;9.70;;;4.70;;
22417;SDS011;11376;50.932;4.442;2023-03-01T16:31:06;9.10;;;5.07;;
22417;SDS011;11376;50.932;4.442;2023-03-01T16:33:32;9.00;;;4.60;;
22417;SDS011;11376;50.932;4.442;2023-03-01T16:35:59;9.00;;;4.67;;
22417;SDS011;11376;50.932;4.442;2023-03-01T16:38:27;10.73;;;5.40;;
22417;SDS011;11376;50.932;4.442;2023-03-01T16:40:53;8.37;;;4.70;;
22417;SDS011;11376;50.932;4.442;2023-03-01T16:43:19;12.00;;;4.87;;
22417;SDS011;11376;50.932;4.442;2023-03-01T16:45:44;13.47;;;5.33;;
22417;SDS011;11376;50.932;4.442;2023-03-01T16:48:11;11.20;;;4.80;;
22417;SDS011;11376;50.932;4.442;2023-03-01T16:50:37;7.77;;;4.27;;
22417;SDS011;11376;50.932;4.442;2023-03-01T16:53:03;10.53;;;4.80;;
22417;SDS011;11376;50.932;4.442;2023-03-01T16:55:28;10.13;;;4.63;;
22417;SDS011;11376;50.932;4.442;2023-03-01T16:57:54;8.37;;;4.17;;